createdAt,value
2022-09-07T00:02:08.596Z,95264.31
2022-09-07T00:04:35.271Z,95271.66
2022-09-07T00:07:01.889Z,95273.81
2022-09-07T00:09:28.987Z,95260.19
2022-09-07T00:11:55.535Z,95266.25
2022-09-07T00:14:22.078Z,95279.13
2022-09-07T00:16:48.710Z,95281.94
2022-09-07T00:19:15.260Z,95266.44
2022-09-07T00:21:41.802Z,95272.56
2022-09-07T00:24:08.326Z,95268.63
2022-09-07T00:26:35.431Z,95258.63
2022-09-07T00:29:04.003Z,95251.72
2022-09-07T00:31:31.719Z,95257.03
2022-09-07T00:34:00.448Z,95255.69
2022-09-07T00:36:27.828Z,95264.06
2022-09-07T00:38:54.521Z,95259.25
2022-09-07T00:41:22.609Z,95270.13
2022-09-07T00:43:57.685Z,95258.56
2022-09-07T00:46:31.956Z,95257.22
2022-09-07T00:49:09.004Z,95268.13
2022-09-07T00:51:57.984Z,95259.72
2022-09-07T00:54:39.905Z,95269.22
2022-09-07T00:57:07.467Z,95275.28
2022-09-07T00:59:42.784Z,95253.88
2022-09-07T01:02:09.648Z,95259.22
2022-09-07T01:04:36.550Z,95245.41
2022-09-07T01:07:03.921Z,95244.97
2022-09-07T01:09:31.106Z,95249.72
2022-09-07T01:12:00.198Z,95252.44
2022-09-07T01:14:31.595Z,95247.06
2022-09-07T01:17:03.886Z,95255.34
2022-09-07T01:19:57.471Z,95257.84
2022-09-07T01:22:35.854Z,95261.56
2022-09-07T01:25:17.704Z,95274.81
2022-09-07T01:27:58.490Z,95270.88
2022-09-07T01:30:25.990Z,95279.03
2022-09-07T01:33:25.371Z,95272.88
2022-09-07T01:36:17.855Z,95268.94
2022-09-07T01:38:52.482Z,95269.44
2022-09-07T01:41:32.669Z,95273.59
2022-09-07T01:44:17.519Z,95270.75
2022-09-07T01:47:01.357Z,95257.47
2022-09-07T01:49:27.831Z,95256.63
2022-09-07T01:52:02.238Z,95266.59
2022-09-07T01:54:43.531Z,95282.03
2022-09-07T01:57:19.060Z,95283.53
2022-09-07T01:59:50.689Z,95266.81
2022-09-07T02:02:23.438Z,95265.38
2022-09-07T02:04:52.698Z,95260.53
2022-09-07T02:07:25.185Z,95257.00
2022-09-07T02:09:57.253Z,95261.66
2022-09-07T02:12:36.454Z,95268.34
2022-09-07T02:15:10.552Z,95258.50
2022-09-07T02:17:43.006Z,95255.69
2022-09-07T02:20:18.722Z,95260.03
2022-09-07T02:22:52.130Z,95265.25
2022-09-07T02:25:24.145Z,95254.53
2022-09-07T02:27:56.439Z,95258.72
2022-09-07T02:30:23.079Z,95265.56
2022-09-07T02:32:49.698Z,95264.72
2022-09-07T02:35:16.871Z,95263.38
2022-09-07T02:37:44.607Z,95267.38
2022-09-07T02:40:12.084Z,95260.66
2022-09-07T02:42:39.441Z,95259.59
2022-09-07T02:45:09.359Z,95257.06
2022-09-07T02:48:03.413Z,95253.50
2022-09-07T02:50:53.663Z,95251.56
2022-09-07T02:53:38.501Z,95259.47
2022-09-07T02:56:46.429Z,95254.81
2022-09-07T02:59:29.248Z,95256.63
2022-09-07T03:02:05.128Z,95249.13
2022-09-07T03:04:47.006Z,95250.09
2022-09-07T03:07:21.369Z,95243.03
2022-09-07T03:09:53.279Z,95248.72
2022-09-07T03:12:19.920Z,95248.53
2022-09-07T03:14:46.818Z,95255.69
2022-09-07T03:17:17.010Z,95254.19
2022-09-07T03:19:43.526Z,95266.22
2022-09-07T03:22:10.124Z,95271.31
2022-09-07T03:24:37.069Z,95270.50
2022-09-07T03:27:03.999Z,95271.06
2022-09-07T03:29:31.105Z,95255.16
2022-09-07T03:31:57.639Z,95252.44
2022-09-07T03:34:24.242Z,95256.50
2022-09-07T03:36:50.795Z,95251.63
2022-09-07T03:39:20.942Z,95256.50
2022-09-07T03:41:47.873Z,95264.88
2022-09-07T03:44:14.446Z,95257.50
2022-09-07T03:46:41.099Z,95257.97
2022-09-07T03:49:07.642Z,95271.88
2022-09-07T03:51:34.187Z,95276.53
2022-09-07T03:54:00.787Z,95266.38
2022-09-07T03:56:27.636Z,95268.75
2022-09-07T03:58:55.467Z,95256.19
2022-09-07T04:01:24.409Z,95266.09
2022-09-07T04:03:51.681Z,95249.44
2022-09-07T04:06:19.447Z,95258.81
2022-09-07T04:08:46.430Z,95256.25
2022-09-07T04:11:15.991Z,95254.56
2022-09-07T04:13:43.281Z,95252.19
2022-09-07T04:16:18.843Z,95252.66
2022-09-07T04:18:45.911Z,95242.75
2022-09-07T04:21:12.757Z,95251.72
2022-09-07T04:23:40.764Z,95256.81
2022-09-07T04:26:12.809Z,95252.72
2022-09-07T04:28:39.391Z,95257.19
2022-09-07T04:31:06.275Z,95266.00
2022-09-07T04:33:34.346Z,95275.69
2022-09-07T04:36:01.896Z,95265.56
2022-09-07T04:38:29.303Z,95263.97
2022-09-07T04:41:06.502Z,95269.56
2022-09-07T04:43:33.047Z,95268.53
2022-09-07T04:46:03.422Z,95261.13
2022-09-07T04:48:30.284Z,95271.22
2022-09-07T04:51:05.872Z,95271.16
2022-09-07T04:53:33.870Z,95257.94
2022-09-07T04:56:00.677Z,95255.22
2022-09-07T04:58:27.410Z,95251.97
2022-09-07T05:00:54.440Z,95253.66
2022-09-07T05:03:21.351Z,95250.19
2022-09-07T05:05:48.050Z,95255.78
2022-09-07T05:08:14.613Z,95262.47
2022-09-07T05:10:50.900Z,95258.38
2022-09-07T05:13:17.522Z,95260.38
2022-09-07T05:15:44.171Z,95276.16
2022-09-07T05:18:10.903Z,95271.75
2022-09-07T05:20:37.693Z,95274.06
2022-09-07T05:23:04.234Z,95285.38
2022-09-07T05:25:31.373Z,95276.16
2022-09-07T05:27:57.914Z,95276.81
2022-09-07T05:33:11.158Z,95272.13
2022-09-07T05:35:37.709Z,95272.78
2022-09-07T05:38:04.341Z,95274.88
2022-09-07T05:40:32.144Z,95279.19
2022-09-07T05:42:59.448Z,95276.31
2022-09-07T05:45:26.312Z,95271.25
2022-09-07T05:47:54.302Z,95264.13
2022-09-07T05:50:20.851Z,95257.97
2022-09-07T05:52:48.510Z,95266.19
2022-09-07T05:55:29.571Z,95265.81
2022-09-07T05:57:56.750Z,95263.31
2022-09-07T06:00:24.274Z,95271.53
2022-09-07T06:02:50.857Z,95265.69
2022-09-07T06:05:17.653Z,95271.53
2022-09-07T06:07:48.165Z,95278.44
2022-09-07T06:13:02.094Z,95278.75
2022-09-07T06:15:28.679Z,95262.78
2022-09-07T06:17:55.288Z,95261.53
2022-09-07T06:20:21.803Z,95264.00
2022-09-07T06:22:48.426Z,95261.78
2022-09-07T06:25:15.064Z,95268.38
2022-09-07T06:27:41.617Z,95281.06
2022-09-07T06:30:08.735Z,95294.41
2022-09-07T06:32:46.002Z,95289.50
2022-09-07T06:35:13.600Z,95288.91
2022-09-07T06:37:40.667Z,95292.88
2022-09-07T06:43:55.478Z,95301.22
2022-09-07T06:49:09.298Z,95300.06
2022-09-07T06:51:35.854Z,95298.88
2022-09-07T06:56:49.034Z,95303.16
2022-09-07T06:59:15.572Z,95305.38
2022-09-07T07:01:42.085Z,95319.06
2022-09-07T07:04:08.625Z,95316.59
2022-09-07T07:06:39.956Z,95311.84
2022-09-07T07:09:08.448Z,95300.84
2022-09-07T07:11:37.144Z,95301.03
2022-09-07T07:14:04.125Z,95295.75
2022-09-07T07:16:30.872Z,95292.16
2022-09-07T07:18:58.024Z,95301.03
2022-09-07T07:21:24.624Z,95298.44
2022-09-07T07:23:52.605Z,95289.31
2022-09-07T07:26:21.850Z,95301.41
2022-09-07T07:31:26.799Z,95294.47
2022-09-07T07:33:54.062Z,95288.34
2022-09-07T07:36:23.179Z,95275.94
2022-09-07T07:38:59.793Z,95279.53
2022-09-07T07:44:18.762Z,95280.13
2022-09-07T07:46:51.102Z,95287.84
2022-09-07T07:49:18.579Z,95284.72
2022-09-07T07:54:34.135Z,95280.84
2022-09-07T07:57:00.648Z,95285.53
2022-09-07T07:59:27.631Z,95287.53
2022-09-07T08:01:54.396Z,95286.34
2022-09-07T08:04:21.162Z,95282.47
2022-09-07T08:06:47.711Z,95285.72
2022-09-07T08:09:14.371Z,95288.03
2022-09-07T08:11:41.501Z,95279.28
2022-09-07T08:14:08.651Z,95271.09
2022-09-07T08:16:36.327Z,95269.03
2022-09-07T08:19:03.429Z,95259.66
2022-09-07T08:21:30.017Z,95268.38
2022-09-07T08:23:56.853Z,95260.91
2022-09-07T08:26:23.361Z,95260.84
2022-09-07T08:28:49.874Z,95264.63
2022-09-07T08:31:17.424Z,95261.22
2022-09-07T08:33:44.606Z,95261.16
2022-09-07T08:36:16.716Z,95262.44
2022-09-07T08:38:43.894Z,95264.53
2022-09-07T08:41:40.640Z,95251.56
2022-09-07T08:44:18.586Z,95253.59
2022-09-07T08:47:22.850Z,95253.41
2022-09-07T08:50:07.011Z,95248.03
2022-09-07T08:52:45.037Z,95254.56
2022-09-07T08:55:21.026Z,95247.41
2022-09-07T08:57:56.578Z,95245.00
2022-09-07T09:00:23.156Z,95237.75
2022-09-07T09:05:43.326Z,95242.16
2022-09-07T09:08:45.562Z,95239.53
2022-09-07T09:11:46.503Z,95232.78
2022-09-07T09:14:27.107Z,95229.72
2022-09-07T09:17:09.121Z,95235.59
2022-09-07T09:19:57.894Z,95235.69
2022-09-07T09:22:28.335Z,95223.19
2022-09-07T09:25:05.732Z,95216.53
2022-09-07T09:27:32.251Z,95200.19
2022-09-07T09:29:58.753Z,95190.63
2022-09-07T09:32:33.361Z,95183.16
2022-09-07T09:35:11.458Z,95188.66
2022-09-07T09:37:39.781Z,95188.41
2022-09-07T09:40:09.394Z,95179.25
2022-09-07T09:42:38.821Z,95188.47
2022-09-07T09:45:19.300Z,95175.38
2022-09-07T09:47:51.083Z,95175.84
2022-09-07T09:53:27.405Z,95174.53
2022-09-07T09:55:54.717Z,95173.78
2022-09-07T10:01:35.329Z,95168.84
2022-09-07T10:04:25.609Z,95177.03
2022-09-07T10:06:58.040Z,95178.69
2022-09-07T10:09:40.601Z,95170.81
2022-09-07T10:12:22.689Z,95164.44
2022-09-07T10:14:49.237Z,95156.22
2022-09-07T10:17:31.991Z,95166.00
2022-09-07T10:20:22.936Z,95162.09
2022-09-07T10:22:52.601Z,95159.66
2022-09-07T10:25:48.870Z,95149.00
2022-09-07T10:28:22.544Z,95145.22
2022-09-07T10:31:15.331Z,95143.91
2022-09-07T10:36:49.919Z,95141.19
2022-09-07T10:39:31.545Z,95131.06
2022-09-07T10:42:29.060Z,95133.09
2022-09-07T10:45:10.745Z,95133.81
2022-09-07T10:47:52.449Z,95122.72
2022-09-07T10:50:31.904Z,95115.84
2022-09-07T10:53:43.109Z,95119.84
2022-09-07T10:56:35.530Z,95111.47
2022-09-07T11:02:38.314Z,95100.72
2022-09-07T11:05:38.516Z,95094.81
2022-09-07T11:09:14.607Z,95095.75
2022-09-07T11:14:20.944Z,95082.66
2022-09-07T11:16:55.434Z,95083.22
2022-09-07T11:19:38.224Z,95077.34
2022-09-07T11:22:28.100Z,95073.16
2022-09-07T11:28:01.705Z,95069.91
2022-09-07T11:30:40.847Z,95057.34
2022-09-07T11:33:20.846Z,95052.56
2022-09-07T11:36:12.237Z,95051.91
2022-09-07T11:38:45.603Z,95053.84
2022-09-07T11:41:15.174Z,95053.38
2022-09-07T11:43:55.847Z,95047.81
2022-09-07T11:46:28.149Z,95047.72
2022-09-07T11:48:58.576Z,95046.00
2022-09-07T11:51:53.690Z,95040.97
2022-09-07T11:54:23.271Z,95041.97
2022-09-07T11:57:18.954Z,95040.91
2022-09-07T12:00:05.728Z,95028.47
2022-09-07T12:03:09.851Z,95026.16
2022-09-07T12:06:01.136Z,95032.94
2022-09-07T12:08:58.598Z,95028.97
2022-09-07T12:11:56.157Z,95025.63
2022-09-07T12:14:28.486Z,95018.97
2022-09-07T12:17:08.475Z,95011.81
2022-09-07T12:19:35.293Z,95006.88
2022-09-07T12:22:02.031Z,95005.38
2022-09-07T12:24:54.398Z,95000.91
2022-09-07T12:27:20.872Z,94999.97
2022-09-07T12:30:11.074Z,94989.63
2022-09-07T12:32:55.417Z,94988.38
2022-09-07T12:35:31.639Z,94986.66
2022-09-07T12:38:26.898Z,94988.94
2022-09-07T12:41:22.963Z,94979.16
2022-09-07T12:43:49.504Z,94984.25
2022-09-07T12:46:40.396Z,94980.06
2022-09-07T12:49:18.814Z,94990.78
2022-09-07T12:52:16.216Z,94975.63
2022-09-07T12:55:26.571Z,94968.91
2022-09-07T12:58:11.581Z,94968.16
2022-09-07T13:01:15.392Z,94964.38
2022-09-07T13:03:51.920Z,94959.59
2022-09-07T13:09:34.819Z,94938.09
2022-09-07T13:15:09.621Z,94937.88
2022-09-07T13:17:42.947Z,94929.56
2022-09-07T13:20:09.387Z,94932.25
2022-09-07T13:22:36.013Z,94932.78
2022-09-07T13:25:20.202Z,94925.63
2022-09-07T13:28:00.754Z,94926.38
2022-09-07T13:30:33.467Z,94923.31
2022-09-07T13:33:24.745Z,94919.50
2022-09-07T13:36:05.733Z,94923.16
2022-09-07T13:38:34.896Z,94913.53
2022-09-07T13:41:13.387Z,94923.66
2022-09-07T13:43:40.319Z,94922.91
2022-09-07T13:46:40.591Z,94920.63
2022-09-07T13:49:27.685Z,94917.66
2022-09-07T13:52:19.191Z,94906.09
2022-09-07T13:55:13.176Z,94905.22
2022-09-07T13:58:06.315Z,94900.81
2022-09-07T14:00:34.089Z,94886.38
2022-09-07T14:03:05.696Z,94902.22
2022-09-07T14:05:32.286Z,94898.25
2022-09-07T14:07:59.048Z,94901.94
2022-09-07T14:10:26.526Z,94886.00
2022-09-07T14:13:14.108Z,94877.69
2022-09-07T14:15:48.008Z,94875.66
2022-09-07T14:18:16.065Z,94874.09
2022-09-07T14:20:46.598Z,94889.38
2022-09-07T14:23:19.353Z,94881.34
2022-09-07T14:28:37.365Z,94892.16
2022-09-07T14:31:05.947Z,94888.03
2022-09-07T14:33:32.929Z,94886.47
2022-09-07T14:35:59.905Z,94886.00
2022-09-07T14:41:18.862Z,94867.63
2022-09-07T14:43:56.725Z,94856.63
2022-09-07T14:46:29.326Z,94852.78
2022-09-07T14:48:57.982Z,94852.41
2022-09-07T14:51:35.216Z,94849.34
2022-09-07T14:54:05.978Z,94853.28
2022-09-07T14:56:39.201Z,94845.69
2022-09-07T14:59:32.887Z,94842.03
2022-09-07T15:02:18.360Z,94832.13
2022-09-07T15:04:50.670Z,94831.75
2022-09-07T15:07:40.170Z,94836.38
2022-09-07T15:10:26.765Z,94831.44
2022-09-07T15:12:56.206Z,94839.06
2022-09-07T15:15:34.583Z,94836.69
2022-09-07T15:18:25.610Z,94834.56
2022-09-07T15:20:52.917Z,94829.69
2022-09-07T15:23:20.043Z,94830.44
2022-09-07T15:25:53.478Z,94836.13
2022-09-07T15:34:11.442Z,94866.31
2022-09-07T15:36:40.704Z,94859.63
2022-09-07T15:39:13.434Z,94861.16
2022-09-07T15:41:39.931Z,94848.78
2022-09-07T15:44:06.438Z,94842.38
2022-09-07T15:46:33.092Z,94845.44
2022-09-07T15:49:01.682Z,94834.19
2022-09-07T15:54:17.247Z,94831.19
2022-09-07T15:57:48.111Z,94833.69
2022-09-07T15:59:30.721Z,94831.19
2022-09-07T16:01:58.151Z,94834.38
2022-09-07T16:04:25.193Z,94842.41
2022-09-07T16:06:51.834Z,94856.22
2022-09-07T16:09:21.688Z,94859.97
2022-09-07T16:11:50.073Z,94876.63
2022-09-07T16:14:17.555Z,94889.19
2022-09-07T16:19:34.618Z,94895.44
2022-09-07T16:22:01.855Z,94884.38
2022-09-07T16:24:28.762Z,94886.97
2022-09-07T16:26:55.398Z,94872.28
2022-09-07T16:29:21.932Z,94862.59
2022-09-07T16:34:35.255Z,94853.50
2022-09-07T16:37:01.841Z,94841.13
2022-09-07T16:39:29.197Z,94853.81
2022-09-07T16:41:55.962Z,94856.84
2022-09-07T16:44:22.681Z,94866.97
2022-09-07T16:46:50.419Z,94862.06
2022-09-07T16:49:17.814Z,94874.78
2022-09-07T16:51:45.783Z,94876.47
2022-09-07T16:54:13.667Z,94863.97
2022-09-07T16:56:40.308Z,94854.13
2022-09-07T16:59:09.639Z,94862.09
2022-09-07T17:01:40.268Z,94858.78
2022-09-07T17:04:10.945Z,94860.81
2022-09-07T17:06:38.964Z,94858.69
2022-09-07T17:09:06.346Z,94863.41
2022-09-07T17:11:34.885Z,94856.00
2022-09-07T17:14:01.966Z,94855.03
2022-09-07T17:16:31.295Z,94872.06
2022-09-07T17:21:46.443Z,94851.03
2022-09-07T17:24:13.093Z,94861.13
2022-09-07T17:26:42.150Z,94852.13
2022-09-07T17:29:10.408Z,94832.41
2022-09-07T17:34:24.435Z,94841.25
2022-09-07T17:36:51.589Z,94840.47
2022-09-07T17:39:19.277Z,94830.56
2022-09-07T17:41:48.477Z,94818.53
2022-09-07T17:44:15.796Z,94807.00
2022-09-07T17:46:42.371Z,94790.19
2022-09-07T17:49:12.412Z,94795.13
2022-09-07T17:51:39.695Z,94796.41
2022-09-07T17:54:11.417Z,94794.81
2022-09-07T17:56:39.847Z,94796.81
2022-09-07T18:01:54.439Z,94809.34
2022-09-07T18:04:21.738Z,94812.31
2022-09-07T18:06:48.459Z,94820.31
2022-09-07T18:09:15.038Z,94816.13
2022-09-07T18:11:45.407Z,94811.13
2022-09-07T18:14:14.579Z,94809.94
2022-09-07T18:16:43.173Z,94798.16
2022-09-07T18:19:11.974Z,94787.78
2022-09-07T18:21:41.205Z,94804.78
2022-09-07T18:24:20.197Z,94800.06
2022-09-07T18:26:50.409Z,94793.38
2022-09-07T18:29:28.695Z,94798.72
2022-09-07T18:31:57.954Z,94792.13
2022-09-07T18:34:24.605Z,94798.00
2022-09-07T18:36:51.313Z,94830.53
2022-09-07T18:39:18.397Z,94858.50
2022-09-07T18:41:45.131Z,94878.72
2022-09-07T18:46:58.439Z,94883.53
2022-09-07T18:49:25.264Z,94873.00
2022-09-07T18:54:41.418Z,94874.03
2022-09-07T18:57:08.197Z,94876.25
2022-09-07T18:59:34.733Z,94881.19
2022-09-07T19:02:04.928Z,94871.69
2022-09-07T19:07:20.919Z,94883.69
2022-09-07T19:09:48.250Z,94868.56
2022-09-07T19:12:15.182Z,94870.75
2022-09-07T19:14:42.287Z,94881.59
2022-09-07T19:17:11.109Z,94879.34
2022-09-07T19:19:38.739Z,94876.38
2022-09-07T19:22:06.048Z,94873.84
2022-09-07T19:24:33.399Z,94884.09
2022-09-07T19:27:01.050Z,94878.00
2022-09-07T19:29:28.218Z,94873.69
2022-09-07T19:32:07.819Z,94871.56
2022-09-07T19:34:42.998Z,94856.06
2022-09-07T19:37:11.579Z,94849.22
2022-09-07T19:39:38.176Z,94855.97
2022-09-07T19:42:05.962Z,94851.00
2022-09-07T19:44:32.860Z,94833.22
2022-09-07T19:47:00.660Z,94816.72
2022-09-07T19:49:27.966Z,94811.78
2022-09-07T19:51:54.849Z,94814.47
2022-09-07T19:54:21.763Z,94815.53
2022-09-07T19:56:48.443Z,94831.84
2022-09-07T19:59:15.102Z,94854.41
2022-09-07T20:01:46.026Z,94886.25
2022-09-07T20:04:19.686Z,94895.81
2022-09-07T20:06:49.815Z,94836.47
2022-09-07T20:09:18.245Z,94847.16
2022-09-07T20:11:46.951Z,94867.28
2022-09-07T20:14:17.284Z,94853.28
2022-09-07T20:16:44.121Z,94866.69
2022-09-07T20:19:11.926Z,94892.13
2022-09-07T20:21:38.711Z,94904.75
2022-09-07T20:24:05.784Z,94928.03
2022-09-07T20:26:32.959Z,94948.09
2022-09-07T20:29:25.679Z,94966.63
2022-09-07T20:31:47.108Z,94996.19
2022-09-07T20:34:14.534Z,95008.75
2022-09-07T20:36:41.387Z,95026.97
2022-09-07T20:39:08.545Z,95018.41
2022-09-07T20:41:35.404Z,94980.97
2022-09-07T20:44:04.214Z,94974.50
2022-09-07T20:46:31.585Z,94978.63
2022-09-07T20:48:58.654Z,94981.09
2022-09-07T20:51:25.927Z,94978.22
2022-09-07T20:53:52.794Z,94969.00
2022-09-07T20:56:21.677Z,94950.16
2022-09-07T20:58:49.519Z,94910.34
2022-09-07T21:01:18.121Z,94879.38
2022-09-07T21:03:49.706Z,94853.28
2022-09-07T21:06:17.798Z,94825.84
2022-09-07T21:08:45.829Z,94825.22
2022-09-07T21:11:19.334Z,94815.72
2022-09-07T21:13:46.949Z,94809.63
2022-09-07T21:16:16.296Z,94810.75
2022-09-07T21:18:44.484Z,94811.16
2022-09-07T21:21:20.565Z,94805.16
2022-09-07T21:23:48.045Z,94799.63
2022-09-07T21:26:14.802Z,94792.25
2022-09-07T21:28:41.352Z,94797.84
2022-09-07T21:31:09.351Z,94791.91
2022-09-07T21:33:37.683Z,94803.41
2022-09-07T21:36:06.245Z,94804.59
2022-09-07T21:38:34.733Z,94809.63
2022-09-07T21:41:12.795Z,94810.56
2022-09-07T21:43:39.978Z,94814.47
2022-09-07T21:46:11.523Z,94816.31
2022-09-07T21:48:38.529Z,94815.16
2022-09-07T21:51:05.666Z,94811.47
2022-09-07T21:53:32.658Z,94821.91
2022-09-07T21:56:01.847Z,94822.72
2022-09-07T21:58:29.403Z,94805.91
2022-09-07T22:00:57.153Z,94800.56
2022-09-07T22:03:25.251Z,94807.41
2022-09-07T22:05:52.711Z,94818.00
2022-09-07T22:08:19.614Z,94817.25
2022-09-07T22:10:46.622Z,94841.00
2022-09-07T22:13:13.414Z,94858.78
2022-09-07T22:15:41.632Z,94863.34
2022-09-07T22:18:11.987Z,94880.75
2022-09-07T22:20:38.892Z,94905.94
2022-09-07T22:23:05.865Z,94898.84
2022-09-07T22:25:33.223Z,94891.63
2022-09-07T22:27:59.963Z,94893.53
2022-09-07T22:30:26.776Z,94894.66
2022-09-07T22:32:53.620Z,94879.91
2022-09-07T22:35:20.813Z,94866.56
2022-09-07T22:37:47.368Z,94849.09
2022-09-07T22:40:14.959Z,94869.75
2022-09-07T22:42:41.991Z,94885.56
2022-09-07T22:45:09.257Z,94879.25
2022-09-07T22:47:35.786Z,94888.19
2022-09-07T22:50:02.322Z,94858.09
2022-09-07T22:52:28.879Z,94864.03
2022-09-07T22:54:55.407Z,94888.91
2022-09-07T22:57:21.985Z,94886.31
2022-09-07T22:59:48.602Z,94893.47
2022-09-07T23:02:15.190Z,94918.00
2022-09-07T23:04:41.777Z,94907.03
2022-09-07T23:07:08.494Z,94895.69
2022-09-07T23:09:35.070Z,94879.63
2022-09-07T23:12:01.798Z,94886.13
2022-09-07T23:14:28.401Z,94893.88
2022-09-07T23:16:54.989Z,94900.28
2022-09-07T23:19:21.663Z,94908.03
2022-09-07T23:21:48.451Z,94917.84
2022-09-07T23:24:18.039Z,94933.16
2022-09-07T23:26:44.838Z,94939.72
2022-09-07T23:29:13.491Z,94942.78
2022-09-07T23:31:40.983Z,94951.38
2022-09-07T23:34:07.877Z,94944.38
2022-09-07T23:36:34.597Z,94955.69
2022-09-07T23:39:01.445Z,94943.00
2022-09-07T23:41:28.866Z,94969.72
2022-09-07T23:43:55.898Z,94984.31
2022-09-07T23:46:23.084Z,94972.94
2022-09-07T23:48:50.268Z,94972.53
2022-09-07T23:51:22.777Z,94971.63
2022-09-07T23:53:50.525Z,94962.78
2022-09-07T23:56:17.407Z,94968.75
2022-09-07T23:58:44.037Z,94960.22
